Flight Briefing for CPX797

Departure Arrival
Miami International Airport (KMIA)
Click to view FAA NOTAMS
Arturo Merino Benitez International Airport (SCEL)
Click to view FAA NOTAMS
Departure Time Arrival Time
N/A N/A
Aircraft Distance
B747-400BCF 3625nm
Departure METAR Arrival METAR
KMIA 181453Z 36005KT 10SM FEW010 SCT130 BKN240 23/19 A3006 RMK AO2 SLP178 T02330194 53013 SCEL 181500Z 19003KT 110V280 CAVOK 23/09 Q1015 NOSIG
Suggested Route
EONNS2 EONNS A509 URSUS UA301 UCA UG430 SIA UB510 COLBY UM795 ILTUR UM795 BOKAN UM795 LOBOT UM795 KUSKU UM795 PUPMI UM795 JCL UL302 TOY UV208 SIMOK SIMOK2C


View recent IFR Routes data
Notes



Charts and Procedures

Charts for KMIA
No chart available
Charts for SCEL
No chart available

Windy.com Weather Map